Disclaimer

Please do not use the information listed here in-flight or in-navigation, as they are not provided to us by the airports but are provided by volunteers, so they might be outdated.

Search


Regions


Airport information page

Radio informations:
RDO - 118.55 MHz

Airport informations:
Latitude: 34° 40' 35.00" N
Longitude: 131° 47' 25.00" E
Elevation: 184 feet - 56 meters
Operating hours: Remarks
Operating agency: Civil government, landing fees and diplomatic clearance may be required
Timezone: UTC+9
Fuel: Jet A1+, Jet A1 with icing inhibitor.

100/130 octane gasoline, leaded, MIL-L-5572F (GREEN)

Runway information:
11/29 - 6562 x 148 feet< - >2000 x 45 meters

Recent METARs:
RJOW 180800Z 16003KT 9999 -SHRA FEW030 SCT040 BKN050 13/12 Q1018
RJOW 180800Z 16003KT 9999 -SHRA FEW030 SCT040 BKN050 13/12 Q1018
RJOW 180900Z 16006KT 130V190 8000 -SHRA FEW030 SCT040 BKN070 12/12 Q1017

Airport on the map: